createdAt,value
2022-10-23T00:00:32.718Z,42.96
2022-10-23T00:01:32.669Z,48.31
2022-10-23T00:02:32.753Z,43.95
2022-10-23T00:03:32.636Z,44.49
2022-10-23T00:04:32.621Z,42.04
2022-10-23T00:05:33.617Z,40.24
2022-10-23T00:06:32.617Z,42.24
2022-10-23T00:07:32.598Z,42.32
2022-10-23T00:08:32.582Z,41.96
2022-10-23T00:09:32.573Z,45.83
2022-10-23T00:10:32.563Z,47.40
2022-10-23T00:11:32.560Z,43.57
2022-10-23T00:12:32.544Z,41.71
2022-10-23T00:13:32.535Z,41.18
2022-10-23T00:14:32.522Z,46.27
2022-10-23T00:15:32.516Z,42.40
2022-10-23T00:16:32.520Z,45.10
2022-10-23T00:17:32.496Z,42.33
2022-10-23T00:18:32.483Z,46.10
2022-10-23T00:19:32.477Z,44.80
2022-10-23T00:20:32.467Z,44.30
2022-10-23T00:21:32.472Z,42.02
2022-10-23T00:22:32.444Z,46.85
2022-10-23T00:23:32.466Z,43.93
2022-10-23T00:24:32.424Z,45.00
2022-10-23T00:25:32.417Z,45.12
2022-10-23T00:26:32.413Z,42.48
2022-10-23T00:27:32.395Z,39.83
2022-10-23T00:28:32.385Z,44.44
2022-10-23T00:29:32.371Z,48.55
2022-10-23T00:30:32.361Z,47.36
2022-10-23T00:31:32.364Z,39.82
2022-10-23T00:33:33.333Z,45.57
2022-10-23T00:34:32.321Z,42.70
2022-10-23T00:35:32.315Z,42.95
2022-10-23T00:36:32.306Z,42.00
2022-10-23T00:37:32.288Z,46.29
2022-10-23T00:38:32.282Z,45.41
2022-10-23T00:39:32.286Z,38.38
2022-10-23T00:40:32.269Z,39.35
2022-10-23T00:41:32.266Z,41.90
2022-10-23T00:42:32.239Z,42.39
2022-10-23T00:43:32.226Z,41.92
2022-10-23T00:44:32.217Z,43.97
2022-10-23T00:45:32.212Z,46.69
2022-10-23T00:46:32.195Z,45.78
2022-10-23T00:47:32.192Z,47.39
2022-10-23T00:48:32.175Z,44.38
2022-10-23T00:49:33.613Z,43.46
2022-10-23T00:50:32.167Z,42.51
2022-10-23T00:51:32.151Z,47.03
2022-10-23T00:52:32.137Z,44.04
2022-10-23T00:53:32.127Z,43.07
2022-10-23T00:54:32.117Z,47.59
2022-10-23T00:55:32.117Z,46.28
2022-10-23T00:56:32.092Z,41.46
2022-10-23T00:57:32.087Z,46.15
2022-10-23T00:58:32.077Z,46.59
2022-10-23T00:59:32.065Z,39.66
2022-10-23T01:00:32.075Z,40.98
2022-10-23T01:01:32.247Z,47.48
2022-10-23T01:02:32.096Z,42.12
2022-10-23T01:03:32.024Z,48.43
2022-10-23T01:04:32.012Z,44.73
2022-10-23T01:05:32.017Z,47.95
2022-10-23T01:06:31.993Z,41.26
2022-10-23T01:07:31.982Z,37.73
2022-10-23T01:08:31.970Z,39.41
2022-10-23T01:09:32.030Z,47.43
2022-10-23T01:10:31.961Z,38.56
2022-10-23T01:11:31.942Z,46.43
2022-10-23T01:12:31.932Z,40.11
2022-10-23T01:13:31.922Z,49.20
2022-10-23T01:14:31.910Z,44.22
2022-10-23T01:15:31.911Z,45.86
2022-10-23T01:16:31.899Z,44.37
2022-10-23T01:17:32.884Z,43.73
2022-10-23T01:18:31.872Z,39.81
2022-10-23T01:19:31.863Z,43.71
2022-10-23T01:20:31.865Z,43.72
2022-10-23T01:21:31.841Z,45.22
2022-10-23T01:22:31.833Z,44.60
2022-10-23T01:23:31.822Z,42.47
2022-10-23T01:24:31.810Z,40.37
2022-10-23T01:25:31.792Z,40.12
2022-10-23T01:26:31.798Z,38.87
2022-10-23T01:27:31.779Z,46.96
2022-10-23T01:28:31.766Z,47.11
2022-10-23T01:29:31.757Z,42.43
2022-10-23T01:30:31.899Z,43.21
2022-10-23T01:31:31.745Z,42.07
2022-10-23T01:32:31.723Z,45.30
2022-10-23T01:33:31.713Z,42.43
2022-10-23T01:34:31.706Z,45.58
2022-10-23T01:35:31.697Z,48.85
2022-10-23T01:36:31.691Z,42.66
2022-10-23T01:37:31.671Z,47.91
2022-10-23T01:38:31.665Z,44.02
2022-10-23T01:39:31.643Z,41.58
2022-10-23T01:40:32.641Z,49.95
2022-10-23T01:41:31.643Z,49.77
2022-10-23T01:42:31.624Z,47.13
2022-10-23T01:43:31.616Z,41.49
2022-10-23T01:44:31.598Z,39.82
2022-10-23T01:45:31.590Z,44.73
2022-10-23T01:46:31.593Z,49.45
2022-10-23T01:47:31.572Z,42.16
2022-10-23T01:48:31.560Z,46.76
2022-10-23T01:49:31.548Z,47.21
2022-10-23T01:50:31.543Z,49.98
2022-10-23T01:51:31.541Z,43.93
2022-10-23T01:52:31.524Z,42.83
2022-10-23T01:53:31.508Z,41.18
2022-10-23T01:54:31.504Z,45.68
2022-10-23T01:55:31.574Z,46.08
2022-10-23T01:56:31.493Z,46.74
2022-10-23T01:57:31.469Z,49.79
2022-10-23T01:58:31.459Z,42.86
2022-10-23T01:59:31.450Z,43.53
2022-10-23T02:00:31.441Z,41.15
2022-10-23T02:01:31.588Z,42.68
2022-10-23T02:02:31.480Z,41.67
2022-10-23T02:03:31.413Z,38.64
2022-10-23T02:04:31.405Z,41.46
2022-10-23T02:05:31.390Z,42.10
2022-10-23T02:06:31.395Z,43.35
2022-10-23T02:07:31.373Z,41.05
2022-10-23T02:08:31.365Z,46.66
2022-10-23T02:09:31.354Z,40.74
2022-10-23T02:10:31.345Z,38.12
2022-10-23T02:11:31.344Z,38.11
2022-10-23T02:12:31.325Z,38.95
2022-10-23T02:13:31.316Z,43.52
2022-10-23T02:14:31.307Z,40.70
2022-10-23T02:15:31.296Z,41.85
2022-10-23T02:16:31.300Z,34.99
2022-10-23T02:17:31.368Z,47.84
2022-10-23T02:18:31.264Z,43.14
2022-10-23T02:19:31.254Z,40.49
2022-10-23T02:20:31.293Z,43.46
2022-10-23T02:21:31.251Z,41.40
2022-10-23T02:22:31.225Z,43.19
2022-10-23T02:23:31.212Z,40.56
2022-10-23T02:24:31.200Z,46.93
2022-10-23T02:25:31.194Z,48.41
2022-10-23T02:26:31.193Z,45.01
2022-10-23T02:27:31.170Z,48.85
2022-10-23T02:28:31.161Z,44.99
2022-10-23T02:29:31.149Z,43.35
2022-10-23T02:30:31.151Z,42.43
2022-10-23T02:31:31.138Z,45.47
2022-10-23T02:32:31.118Z,43.33
2022-10-23T02:33:31.110Z,46.56
2022-10-23T02:34:31.097Z,40.54
2022-10-23T02:35:31.096Z,40.47
2022-10-23T02:36:31.074Z,40.95
2022-10-23T02:37:31.061Z,43.57
2022-10-23T02:38:31.055Z,45.51
2022-10-23T02:39:31.056Z,48.13
2022-10-23T02:40:31.060Z,48.89
2022-10-23T02:41:31.027Z,44.35
2022-10-23T02:42:31.019Z,47.91
2022-10-23T02:43:31.004Z,43.85
2022-10-23T02:44:30.996Z,41.15
2022-10-23T02:45:31.047Z,42.00
2022-10-23T02:46:30.976Z,47.73
2022-10-23T02:47:30.968Z,44.51
2022-10-23T02:48:30.955Z,43.36
2022-10-23T02:49:30.946Z,42.73
2022-10-23T02:50:30.938Z,46.96
2022-10-23T02:51:30.936Z,48.91
2022-10-23T02:52:30.921Z,47.74
2022-10-23T02:53:30.906Z,46.30
2022-10-23T02:54:30.898Z,41.47
2022-10-23T02:55:30.903Z,42.97
2022-10-23T02:56:32.657Z,47.40
2022-10-23T02:57:30.868Z,45.76
2022-10-23T02:58:30.863Z,46.67
2022-10-23T02:59:30.844Z,45.94
2022-10-23T03:00:30.836Z,41.28
2022-10-23T03:01:30.957Z,37.21
2022-10-23T03:03:30.809Z,41.91
2022-10-23T03:04:30.798Z,44.69
2022-10-23T03:05:30.797Z,44.98
2022-10-23T03:06:30.782Z,45.20
2022-10-23T03:07:30.767Z,43.17
2022-10-23T03:08:30.757Z,37.09
2022-10-23T03:09:30.746Z,43.03
2022-10-23T03:10:30.739Z,47.05
2022-10-23T03:11:30.735Z,43.57
2022-10-23T03:12:30.718Z,46.98
2022-10-23T03:13:30.709Z,36.44
2022-10-23T03:14:30.698Z,38.58
2022-10-23T03:15:30.696Z,46.39
2022-10-23T03:16:30.697Z,43.35
2022-10-23T03:17:30.667Z,40.80
2022-10-23T03:18:30.659Z,39.55
2022-10-23T03:19:30.646Z,44.92
2022-10-23T03:20:30.640Z,44.24
2022-10-23T03:21:30.644Z,44.73
2022-10-23T03:22:30.619Z,47.75
2022-10-23T03:23:30.612Z,43.16
2022-10-23T03:24:30.602Z,45.91
2022-10-23T03:25:30.584Z,46.20
2022-10-23T03:26:30.585Z,44.42
2022-10-23T03:27:30.567Z,45.45
2022-10-23T03:28:30.554Z,48.39
2022-10-23T03:29:30.544Z,40.39
2022-10-23T03:30:30.534Z,40.76
2022-10-23T03:31:30.543Z,47.89
2022-10-23T03:32:30.516Z,44.85
2022-10-23T03:33:30.507Z,45.57
2022-10-23T03:34:30.492Z,40.59
2022-10-23T03:35:30.483Z,43.83
2022-10-23T03:36:30.480Z,45.93
2022-10-23T03:37:30.474Z,42.83
2022-10-23T03:38:30.450Z,48.79
2022-10-23T03:39:30.434Z,45.93
2022-10-23T03:40:30.425Z,43.64
2022-10-23T03:41:30.435Z,49.50
2022-10-23T03:42:30.426Z,45.53
2022-10-23T03:43:30.398Z,44.22
2022-10-23T03:44:30.389Z,39.92
2022-10-23T03:45:30.375Z,42.93
2022-10-23T03:46:30.376Z,48.63
2022-10-23T03:47:30.350Z,40.52
2022-10-23T03:48:30.342Z,44.07
2022-10-23T03:49:30.330Z,46.22
2022-10-23T03:50:30.323Z,42.36
2022-10-23T03:51:30.333Z,46.97
2022-10-23T03:52:30.308Z,47.05
2022-10-23T03:53:30.291Z,43.13
2022-10-23T03:54:30.282Z,41.99
2022-10-23T03:55:30.269Z,40.33
2022-10-23T03:56:30.271Z,41.98
2022-10-23T03:57:30.243Z,40.00
2022-10-23T03:58:30.235Z,43.10
2022-10-23T03:59:30.225Z,43.64
2022-10-23T04:00:30.317Z,44.19
2022-10-23T04:01:30.316Z,48.58
2022-10-23T04:02:30.265Z,45.87
2022-10-23T04:03:30.179Z,45.65
2022-10-23T04:04:31.176Z,45.42
2022-10-23T04:05:30.184Z,46.97
2022-10-23T04:06:30.152Z,47.45
2022-10-23T04:07:30.151Z,45.47
2022-10-23T04:08:30.135Z,48.35
2022-10-23T04:09:30.126Z,45.52
2022-10-23T04:10:30.129Z,47.64
2022-10-23T04:11:30.107Z,46.68
2022-10-23T04:12:30.098Z,51.92
2022-10-23T04:13:30.081Z,42.59
2022-10-23T04:14:30.074Z,47.63
2022-10-23T04:15:30.073Z,46.80
2022-10-23T04:16:30.050Z,43.74
2022-10-23T04:17:30.053Z,38.34
2022-10-23T04:18:30.032Z,45.78
2022-10-23T04:19:30.025Z,49.15
2022-10-23T04:20:30.023Z,43.06
2022-10-23T04:21:29.999Z,46.57
2022-10-23T04:22:29.994Z,49.03
2022-10-23T04:23:29.977Z,47.48
2022-10-23T04:24:29.966Z,38.06
2022-10-23T04:25:29.967Z,43.84
2022-10-23T04:26:29.949Z,48.37
2022-10-23T04:27:29.935Z,46.14
2022-10-23T04:28:29.931Z,46.25
2022-10-23T04:29:29.912Z,45.71
2022-10-23T04:30:29.916Z,44.91
2022-10-23T04:31:29.894Z,44.32
2022-10-23T04:32:29.882Z,44.48
2022-10-23T04:33:29.874Z,46.82
2022-10-23T04:34:29.864Z,48.26
2022-10-23T04:35:29.874Z,45.75
2022-10-23T04:36:29.849Z,46.56
2022-10-23T04:37:29.835Z,44.01
2022-10-23T04:38:29.827Z,48.83
2022-10-23T04:39:29.817Z,44.29
2022-10-23T04:40:29.815Z,47.52
2022-10-23T04:41:29.789Z,50.65
2022-10-23T04:42:29.801Z,46.60
2022-10-23T04:43:29.792Z,46.69
2022-10-23T04:44:29.770Z,49.50
2022-10-23T04:45:29.757Z,50.34
2022-10-23T04:46:29.759Z,48.07
2022-10-23T04:47:29.736Z,49.40
2022-10-23T04:48:29.727Z,48.69
2022-10-23T04:49:29.721Z,49.04
2022-10-23T04:50:29.704Z,45.61
2022-10-23T04:51:29.709Z,49.26
2022-10-23T04:52:29.686Z,48.18
2022-10-23T04:53:29.668Z,48.59
2022-10-23T04:54:29.664Z,47.11
2022-10-23T04:55:29.652Z,48.98
2022-10-23T04:56:29.650Z,52.02
2022-10-23T04:57:29.631Z,48.34
2022-10-23T04:58:29.626Z,46.19
2022-10-23T04:59:29.606Z,51.09
2022-10-23T05:00:29.696Z,48.95
2022-10-23T05:01:29.761Z,43.59
2022-10-23T05:02:29.576Z,43.00
2022-10-23T05:03:29.566Z,47.71
2022-10-23T05:04:29.556Z,47.22
2022-10-23T05:05:29.546Z,46.94
2022-10-23T05:06:29.546Z,46.41
2022-10-23T05:07:29.529Z,46.99
2022-10-23T05:08:29.514Z,47.92
2022-10-23T05:09:29.505Z,47.80
2022-10-23T05:10:29.492Z,46.07
2022-10-23T05:11:29.494Z,46.18
2022-10-23T05:12:29.475Z,44.62
2022-10-23T05:13:29.471Z,45.79
2022-10-23T05:14:29.454Z,45.64
2022-10-23T05:15:29.511Z,46.63
2022-10-23T05:16:55.352Z,44.75
2022-10-23T05:17:29.432Z,47.43
2022-10-23T05:18:29.415Z,42.09
2022-10-23T05:19:29.407Z,44.52
2022-10-23T05:20:29.394Z,46.10
2022-10-23T05:21:29.401Z,50.98
2022-10-23T05:22:29.370Z,47.96
2022-10-23T05:23:29.362Z,45.53
2022-10-23T05:24:29.353Z,49.00
2022-10-23T05:25:29.341Z,42.80
2022-10-23T05:26:29.345Z,48.90
2022-10-23T05:27:29.320Z,47.63
2022-10-23T05:28:29.314Z,47.55
2022-10-23T05:29:29.307Z,46.57
2022-10-23T05:30:29.292Z,49.31
2022-10-23T05:31:29.299Z,47.96
2022-10-23T05:32:29.273Z,46.46
2022-10-23T05:33:29.265Z,45.53
2022-10-23T05:34:29.254Z,43.80
2022-10-23T05:35:29.245Z,46.86
2022-10-23T05:36:29.248Z,46.48
2022-10-23T05:37:29.223Z,45.87
2022-10-23T05:38:29.213Z,49.95
2022-10-23T05:39:29.205Z,44.56
2022-10-23T05:40:29.279Z,44.73
2022-10-23T05:41:29.192Z,46.73
2022-10-23T05:42:29.174Z,46.90
2022-10-23T05:43:29.171Z,43.28
2022-10-23T05:44:29.150Z,47.76
2022-10-23T05:45:29.146Z,47.22
2022-10-23T05:46:29.147Z,48.35
2022-10-23T05:47:29.126Z,49.16
2022-10-23T05:48:36.261Z,45.30
2022-10-23T05:49:31.107Z,47.81
2022-10-23T05:50:29.099Z,46.34
2022-10-23T05:51:29.090Z,48.95
2022-10-23T05:52:29.074Z,48.76
2022-10-23T05:53:29.065Z,48.91
2022-10-23T05:54:29.053Z,47.30
2022-10-23T05:55:29.044Z,47.62
2022-10-23T05:56:29.045Z,48.57
2022-10-23T05:57:29.020Z,47.83
2022-10-23T05:58:29.012Z,50.04
2022-10-23T05:59:29.002Z,48.30
2022-10-23T06:00:29.086Z,49.64
2022-10-23T06:01:29.110Z,51.85
2022-10-23T06:02:29.099Z,49.30
2022-10-23T06:03:28.962Z,49.79
2022-10-23T06:04:28.954Z,47.13
2022-10-23T06:05:28.981Z,50.47
2022-10-23T06:06:28.943Z,50.73
2022-10-23T06:07:31.222Z,52.08
2022-10-23T06:08:28.910Z,47.40
2022-10-23T06:09:28.903Z,48.49
2022-10-23T06:10:28.962Z,49.08
2022-10-23T06:11:28.896Z,50.14
2022-10-23T06:12:28.870Z,50.64
2022-10-23T06:13:28.860Z,50.20
2022-10-23T06:14:28.850Z,48.87
2022-10-23T06:15:28.839Z,51.07
2022-10-23T06:16:28.848Z,49.57
2022-10-23T06:17:28.825Z,49.88
2022-10-23T06:18:28.811Z,48.51
2022-10-23T06:19:28.803Z,45.90
2022-10-23T06:20:28.941Z,46.85
2022-10-23T06:21:28.788Z,45.91
2022-10-23T06:22:28.776Z,47.02
2022-10-23T06:23:28.761Z,49.40
2022-10-23T06:24:28.751Z,50.60
2022-10-23T06:25:28.741Z,49.61
2022-10-23T06:26:28.738Z,48.71
2022-10-23T06:27:28.725Z,49.97
2022-10-23T06:28:28.711Z,51.60
2022-10-23T06:29:28.700Z,47.43
2022-10-23T06:30:28.904Z,47.93
2022-10-23T06:31:28.695Z,50.52
2022-10-23T06:32:28.671Z,50.10
2022-10-23T06:33:28.655Z,48.17
2022-10-23T06:34:28.652Z,49.91
2022-10-23T06:35:28.646Z,49.98
2022-10-23T06:36:28.642Z,48.67
2022-10-23T06:37:28.625Z,49.15
2022-10-23T06:38:28.620Z,49.86
2022-10-23T06:39:31.240Z,51.17
2022-10-23T06:40:28.683Z,47.53
2022-10-23T06:41:28.590Z,49.69
2022-10-23T06:42:28.574Z,49.13
2022-10-23T06:43:28.564Z,49.88
2022-10-23T06:44:28.547Z,50.93
2022-10-23T06:45:28.538Z,49.68
2022-10-23T06:46:28.539Z,48.22
2022-10-23T06:47:28.520Z,49.12
2022-10-23T06:48:28.516Z,50.24
2022-10-23T06:49:28.498Z,48.84
2022-10-23T06:50:28.551Z,47.49
2022-10-23T06:51:28.495Z,50.30
2022-10-23T06:52:45.977Z,48.11
2022-10-23T06:53:30.468Z,50.78
2022-10-23T06:54:28.449Z,48.33
2022-10-23T06:55:28.557Z,50.60
2022-10-23T06:56:28.443Z,47.63
2022-10-23T06:57:28.422Z,48.66
2022-10-23T06:58:28.407Z,47.82
2022-10-23T06:59:28.394Z,46.51
2022-10-23T07:00:28.466Z,49.57
2022-10-23T07:01:28.607Z,50.90
2022-10-23T07:02:28.366Z,48.15
2022-10-23T07:03:28.357Z,49.08
2022-10-23T07:04:28.342Z,49.87
2022-10-23T07:05:28.334Z,50.08
2022-10-23T07:06:28.336Z,51.07
2022-10-23T07:07:28.316Z,49.37
2022-10-23T07:08:28.300Z,49.63
2022-10-23T07:09:28.304Z,50.15
2022-10-23T07:10:28.281Z,49.63
2022-10-23T07:11:29.294Z,48.28
2022-10-23T07:12:28.263Z,49.36
2022-10-23T07:13:28.250Z,49.67
2022-10-23T07:14:28.242Z,48.25
2022-10-23T07:15:28.235Z,50.10
2022-10-23T07:16:28.247Z,48.60
2022-10-23T07:17:28.208Z,50.34
2022-10-23T07:18:28.242Z,50.18
2022-10-23T07:19:28.200Z,49.07
2022-10-23T07:20:28.183Z,49.10
2022-10-23T07:21:28.184Z,50.56
2022-10-23T07:22:28.163Z,47.27
2022-10-23T07:23:28.156Z,48.05
2022-10-23T07:24:28.142Z,49.92
2022-10-23T07:25:28.132Z,48.77
2022-10-23T07:26:28.135Z,50.05
2022-10-23T07:27:28.115Z,48.86
2022-10-23T07:28:28.105Z,47.60
2022-10-23T07:29:28.087Z,49.63
2022-10-23T07:30:28.086Z,48.42
2022-10-23T07:31:28.425Z,49.62
2022-10-23T07:32:28.064Z,49.73
2022-10-23T07:33:28.053Z,51.26
2022-10-23T07:34:28.044Z,48.28
2022-10-23T07:35:28.030Z,49.46
2022-10-23T07:36:28.032Z,50.75
2022-10-23T07:37:28.012Z,49.89
2022-10-23T07:38:27.997Z,47.34
2022-10-23T07:39:27.994Z,49.82
2022-10-23T07:40:27.978Z,50.49
2022-10-23T07:41:27.978Z,49.78
2022-10-23T07:42:27.951Z,50.16
2022-10-23T07:43:28.023Z,49.38
2022-10-23T07:44:27.965Z,52.29
2022-10-23T07:45:27.927Z,51.44
2022-10-23T07:46:27.932Z,50.49
2022-10-23T07:47:27.907Z,50.49
2022-10-23T07:48:27.898Z,49.21
2022-10-23T07:49:27.882Z,51.79
2022-10-23T07:50:27.873Z,50.12
2022-10-23T07:51:27.875Z,52.99
2022-10-23T07:52:31.951Z,48.68
2022-10-23T07:53:28.843Z,48.48
2022-10-23T07:54:28.273Z,48.98
2022-10-23T07:55:28.819Z,49.96
2022-10-23T07:56:27.825Z,52.27
2022-10-23T07:57:27.826Z,51.29
2022-10-23T07:58:27.794Z,50.55
2022-10-23T07:59:27.788Z,53.00
2022-10-23T08:00:27.903Z,51.71
2022-10-23T08:01:27.822Z,52.17
2022-10-23T08:02:27.849Z,49.87
2022-10-23T08:03:27.742Z,49.69
2022-10-23T08:04:27.733Z,51.15
2022-10-23T08:05:27.723Z,50.49
2022-10-23T08:06:27.722Z,49.80
2022-10-23T08:07:27.710Z,51.79
2022-10-23T08:08:27.693Z,50.03
2022-10-23T08:09:27.685Z,48.39
2022-10-23T08:10:27.664Z,50.14
2022-10-23T08:11:28.672Z,50.22
2022-10-23T08:12:27.653Z,51.04
2022-10-23T08:13:27.641Z,50.91
2022-10-23T08:14:27.631Z,52.66
2022-10-23T08:15:27.618Z,51.30
2022-10-23T08:16:27.621Z,50.95
2022-10-23T08:17:28.328Z,51.14
2022-10-23T08:18:28.592Z,48.32
2022-10-23T08:19:27.587Z,49.70
2022-10-23T08:20:27.578Z,51.42
2022-10-23T08:21:27.579Z,50.22
2022-10-23T08:22:27.554Z,53.44
2022-10-23T08:23:27.541Z,52.12
2022-10-23T08:24:27.529Z,50.63
2022-10-23T08:25:27.565Z,52.89
2022-10-23T08:26:27.534Z,51.27
2022-10-23T08:27:27.506Z,52.33
2022-10-23T08:28:27.491Z,52.38
2022-10-23T08:29:27.477Z,53.29
2022-10-23T08:30:27.470Z,53.27
2022-10-23T08:31:27.497Z,52.52
2022-10-23T08:32:27.476Z,52.43
2022-10-23T08:33:27.443Z,50.39
2022-10-23T08:34:27.429Z,51.73
2022-10-23T08:35:27.416Z,52.57
2022-10-23T08:36:27.409Z,51.04
2022-10-23T08:37:27.411Z,51.51
2022-10-23T08:38:27.389Z,51.35
2022-10-23T08:39:27.379Z,52.56
2022-10-23T08:40:27.360Z,49.08
2022-10-23T08:41:27.357Z,52.33
2022-10-23T08:42:27.354Z,52.22
2022-10-23T08:43:27.334Z,52.37
2022-10-23T08:44:27.321Z,51.30
2022-10-23T08:45:27.314Z,52.57
2022-10-23T08:46:27.302Z,53.39
2022-10-23T08:47:27.308Z,54.42
2022-10-23T08:48:27.286Z,53.85
2022-10-23T08:49:27.278Z,53.57
2022-10-23T08:50:27.259Z,54.68
2022-10-23T08:51:27.252Z,53.12
2022-10-23T08:52:27.247Z,50.82
2022-10-23T08:53:28.228Z,51.76
2022-10-23T08:54:27.222Z,52.24
2022-10-23T08:55:27.208Z,52.85
2022-10-23T08:56:27.304Z,51.43
2022-10-23T08:57:27.202Z,51.09
2022-10-23T08:58:27.177Z,52.98
2022-10-23T08:59:27.166Z,52.26
2022-10-23T09:00:27.158Z,52.55
2022-10-23T09:01:27.272Z,52.56
2022-10-23T09:02:27.201Z,51.93
2022-10-23T09:03:27.129Z,55.86
2022-10-23T09:04:27.111Z,55.46
2022-10-23T09:05:27.102Z,52.30
2022-10-23T09:06:27.117Z,52.70
2022-10-23T09:07:27.100Z,53.91
2022-10-23T09:08:27.126Z,52.01
2022-10-23T09:09:27.065Z,54.45
2022-10-23T09:10:27.052Z,53.73
2022-10-23T09:11:27.044Z,55.04
2022-10-23T09:12:27.042Z,52.80
2022-10-23T09:13:27.021Z,53.40
2022-10-23T09:14:27.012Z,55.11
2022-10-23T09:15:27.002Z,51.77
2022-10-23T09:16:26.993Z,53.94
2022-10-23T09:17:27.006Z,53.27
2022-10-23T09:18:26.969Z,52.97
2022-10-23T09:19:26.965Z,53.17
2022-10-23T09:20:26.950Z,52.97
2022-10-23T09:21:26.942Z,52.59
2022-10-23T09:22:26.943Z,53.36
2022-10-23T09:23:26.919Z,51.85
2022-10-23T09:24:26.913Z,53.61
2022-10-23T09:25:26.898Z,53.79
2022-10-23T09:26:26.890Z,52.40
2022-10-23T09:27:26.890Z,51.36
2022-10-23T09:28:26.884Z,53.85
2022-10-23T09:29:26.858Z,54.45
2022-10-23T09:30:26.850Z,53.79
2022-10-23T09:31:26.839Z,54.11
2022-10-23T09:32:26.843Z,52.71
2022-10-23T09:33:26.816Z,55.91
2022-10-23T09:34:26.815Z,54.58
2022-10-23T09:35:26.797Z,53.66
2022-10-23T09:36:26.791Z,53.38
2022-10-23T09:37:26.785Z,54.43
2022-10-23T09:38:26.770Z,55.08
2022-10-23T09:39:26.761Z,52.69
2022-10-23T09:40:26.750Z,53.04
2022-10-23T09:41:26.737Z,53.57
2022-10-23T09:42:26.736Z,53.79
2022-10-23T09:43:26.720Z,55.33
2022-10-23T09:44:26.709Z,53.54
2022-10-23T09:45:26.686Z,53.65
2022-10-23T09:46:27.692Z,52.80
2022-10-23T09:47:26.687Z,53.95
2022-10-23T09:48:26.667Z,54.48
2022-10-23T09:49:26.657Z,53.59
2022-10-23T09:50:26.651Z,53.15
2022-10-23T09:51:26.641Z,55.24
2022-10-23T09:52:26.637Z,53.59
2022-10-23T09:53:26.618Z,54.85
2022-10-23T09:54:26.606Z,54.68
2022-10-23T09:55:26.596Z,55.22
2022-10-23T09:56:26.618Z,53.83
2022-10-23T09:57:26.576Z,52.14
2022-10-23T09:58:26.578Z,51.64
2022-10-23T09:59:26.555Z,50.73
2022-10-23T10:00:26.555Z,54.40
2022-10-23T10:01:26.693Z,54.59
2022-10-23T10:02:26.529Z,53.18
2022-10-23T10:03:26.517Z,55.44
2022-10-23T10:04:26.510Z,55.51
2022-10-23T10:05:26.500Z,55.74
2022-10-23T10:06:26.563Z,55.35
2022-10-23T10:07:26.474Z,52.20
2022-10-23T10:08:26.470Z,54.67
2022-10-23T10:09:26.457Z,54.49
2022-10-23T10:10:26.452Z,54.73
2022-10-23T10:11:26.448Z,54.88
2022-10-23T10:12:26.430Z,54.08
2022-10-23T10:13:26.428Z,52.61
2022-10-23T10:14:26.410Z,51.97
2022-10-23T10:15:26.404Z,53.57
2022-10-23T10:16:26.443Z,54.86
2022-10-23T10:17:26.382Z,53.78
2022-10-23T10:18:26.367Z,54.11
2022-10-23T10:19:26.355Z,51.78
2022-10-23T10:20:26.347Z,53.66
2022-10-23T10:21:26.350Z,54.75
2022-10-23T10:22:26.324Z,54.98
2022-10-23T10:23:26.319Z,56.47
2022-10-23T10:24:26.306Z,54.13
2022-10-23T10:25:26.294Z,53.73
2022-10-23T10:26:26.322Z,54.41
2022-10-23T10:27:26.278Z,55.77
2022-10-23T10:28:26.269Z,56.69
2022-10-23T10:29:26.263Z,54.86
2022-10-23T10:30:26.251Z,55.29
2022-10-23T10:31:26.241Z,55.97
2022-10-23T10:32:26.242Z,55.77
2022-10-23T10:33:26.223Z,54.58
2022-10-23T10:34:26.214Z,53.14
2022-10-23T10:35:26.208Z,54.01
2022-10-23T10:37:27.183Z,55.51
2022-10-23T10:38:26.170Z,53.80
2022-10-23T10:39:26.168Z,53.48
2022-10-23T10:40:26.157Z,55.39
2022-10-23T10:41:26.143Z,55.98
2022-10-23T10:42:26.142Z,54.98
2022-10-23T10:43:26.127Z,55.47
2022-10-23T10:44:26.115Z,56.29
2022-10-23T10:45:26.105Z,56.46
2022-10-23T10:46:26.105Z,56.23
2022-10-23T10:47:26.100Z,55.53
2022-10-23T10:48:26.081Z,53.63
2022-10-23T10:49:26.076Z,55.61
2022-10-23T10:50:26.060Z,56.18
2022-10-23T10:51:26.050Z,56.78
2022-10-23T10:52:26.051Z,56.61
2022-10-23T10:53:26.028Z,55.27
2022-10-23T10:54:26.021Z,56.30
2022-10-23T10:55:26.011Z,57.04
2022-10-23T10:56:26.003Z,55.68
2022-10-23T10:57:26.003Z,56.73
2022-10-23T10:58:25.987Z,54.73
2022-10-23T10:59:25.975Z,56.49
2022-10-23T11:00:25.963Z,58.04
2022-10-23T11:01:26.086Z,57.23
2022-10-23T11:02:26.012Z,57.26
2022-10-23T11:03:25.933Z,55.55
2022-10-23T11:04:25.923Z,57.11
2022-10-23T11:05:25.907Z,57.20
2022-10-23T11:06:25.900Z,55.45
2022-10-23T11:07:25.906Z,53.90
2022-10-23T11:08:25.879Z,54.50
2022-10-23T11:09:25.870Z,55.14
2022-10-23T11:10:25.860Z,55.42
2022-10-23T11:11:25.847Z,53.41
2022-10-23T11:12:25.854Z,55.33
2022-10-23T11:13:25.830Z,54.81
2022-10-23T11:14:25.824Z,56.36
2022-10-23T11:15:25.812Z,54.97
2022-10-23T11:16:57.711Z,54.59
2022-10-23T11:17:25.789Z,55.78
2022-10-23T11:18:25.780Z,55.98
2022-10-23T11:19:25.770Z,54.62
2022-10-23T11:20:25.764Z,58.16
2022-10-23T11:21:25.753Z,56.61
2022-10-23T11:22:25.748Z,56.69
2022-10-23T11:23:25.728Z,57.19
2022-10-23T11:24:25.715Z,56.54
2022-10-23T11:25:25.710Z,56.47
2022-10-23T11:26:25.697Z,56.79
2022-10-23T11:27:25.760Z,55.88
2022-10-23T11:28:25.678Z,55.98
2022-10-23T11:29:25.672Z,57.18
2022-10-23T11:30:25.660Z,56.26
2022-10-23T11:31:25.669Z,57.72
2022-10-23T11:32:25.719Z,57.22
2022-10-23T11:33:25.625Z,58.94
2022-10-23T11:34:25.619Z,58.09
2022-10-23T11:35:25.609Z,57.86
2022-10-23T11:36:25.599Z,56.63
2022-10-23T11:37:25.601Z,56.86
2022-10-23T11:38:25.580Z,57.75
2022-10-23T11:39:25.602Z,58.24
2022-10-23T11:40:25.557Z,58.57
2022-10-23T11:41:26.920Z,58.95
2022-10-23T11:42:25.550Z,58.60
2022-10-23T11:43:25.528Z,57.47
2022-10-23T11:44:25.520Z,56.95
2022-10-23T11:45:25.513Z,57.82
2022-10-23T11:46:25.506Z,57.67
2022-10-23T11:47:25.486Z,58.66
2022-10-23T11:48:25.478Z,57.63
2022-10-23T11:49:25.468Z,57.33
2022-10-23T11:50:25.458Z,55.93
2022-10-23T11:51:25.464Z,56.39
2022-10-23T11:52:25.439Z,55.48
2022-10-23T11:53:25.428Z,56.44
2022-10-23T11:54:25.417Z,56.96
2022-10-23T11:55:25.412Z,56.52
2022-10-23T11:56:25.423Z,55.91
2022-10-23T11:57:25.456Z,55.42
2022-10-23T11:58:25.381Z,57.50
2022-10-23T11:59:25.373Z,57.63
2022-10-23T12:00:25.359Z,57.68
2022-10-23T12:01:25.409Z,56.11
2022-10-23T12:02:25.610Z,55.77
2022-10-23T12:03:25.331Z,56.03
2022-10-23T12:04:25.321Z,56.16
2022-10-23T12:05:25.311Z,56.91
2022-10-23T12:06:25.302Z,55.74
2022-10-23T12:07:25.302Z,57.62
2022-10-23T12:08:25.282Z,57.47
2022-10-23T12:09:25.271Z,55.32
2022-10-23T12:10:25.260Z,55.21
2022-10-23T12:11:27.476Z,55.73
2022-10-23T12:12:25.248Z,57.42
2022-10-23T12:13:25.230Z,55.19
2022-10-23T12:14:25.218Z,55.79
2022-10-23T12:15:25.214Z,57.60
2022-10-23T12:16:25.199Z,54.76
2022-10-23T12:17:25.204Z,56.85
2022-10-23T12:18:25.178Z,56.43
2022-10-23T12:19:25.170Z,54.80
2022-10-23T12:20:25.170Z,56.44
2022-10-23T12:21:25.148Z,55.76
2022-10-23T12:22:25.215Z,55.80
2022-10-23T12:23:25.128Z,57.71
2022-10-23T12:24:25.120Z,57.70
2022-10-23T12:25:25.113Z,56.30
2022-10-23T12:26:25.098Z,56.02
2022-10-23T12:27:25.099Z,56.72
2022-10-23T12:28:25.083Z,54.70
2022-10-23T12:29:25.069Z,56.05
2022-10-23T12:30:25.059Z,56.03
2022-10-23T12:31:25.050Z,56.43
2022-10-23T12:32:25.054Z,55.84
2022-10-23T12:33:25.026Z,55.32
2022-10-23T12:34:25.015Z,55.88
2022-10-23T12:35:25.010Z,56.18
2022-10-23T12:36:25.001Z,57.00
2022-10-23T12:37:25.003Z,56.28
2022-10-23T12:38:24.980Z,57.22
2022-10-23T12:39:24.975Z,55.47
2022-10-23T12:40:24.963Z,56.91
2022-10-23T12:41:24.952Z,56.48
2022-10-23T12:42:24.955Z,56.78
2022-10-23T12:43:24.934Z,55.22
2022-10-23T12:44:24.921Z,54.74
2022-10-23T12:45:24.906Z,55.68
2022-10-23T12:46:24.902Z,54.57
2022-10-23T12:47:24.978Z,55.10
2022-10-23T12:48:24.888Z,55.12
2022-10-23T12:49:24.879Z,55.97
2022-10-23T12:50:24.857Z,55.27
2022-10-23T12:51:24.851Z,56.81
2022-10-23T12:52:24.861Z,55.66
2022-10-23T12:53:24.832Z,56.19
2022-10-23T12:54:24.835Z,55.89
2022-10-23T12:55:24.815Z,55.92